Time;durP1;ratioP1;P1;durP2;ratioP2;P2;SDS_P1;SDS_P2;PMS_P1;PMS_P2;Temp;Humidity;BMP_temperature;BMP_pressure;BME280_temperature;BME280_humidity;BME280_pressure;Samples;Min_cycle;Max_cycle;Signal;HPM_P1;HPM_P2
2023/03/06 00:00:49;;;;;;;0.90;0.70;;;7.00;99.90;;;;;;4958285;28;20297;-71
2023/03/06 00:03:19;;;;;;;1.10;0.63;;;6.90;99.90;;;;;;4963325;28;20222;-70
2023/03/06 00:05:47;;;;;;;0.98;0.88;;;6.90;99.90;;;;;;4960444;28;20218;-69
2023/03/06 00:08:15;;;;;;;0.85;0.70;;;7.00;99.90;;;;;;4960784;28;20342;-69
2023/03/06 00:10:43;;;;;;;1.83;1.00;;;7.10;99.90;;;;;;4963717;28;20204;-69
2023/03/06 00:13:14;;;;;;;0.85;0.82;;;7.10;99.90;;;;;;4959394;28;20651;-69
2023/03/06 00:15:42;;;;;;;1.25;0.75;;;7.00;99.90;;;;;;4953381;28;20207;-69
2023/03/06 00:18:10;;;;;;;1.08;0.75;;;7.00;99.90;;;;;;4960622;28;20210;-69
2023/03/06 00:20:42;;;;;;;1.65;0.98;;;7.00;99.90;;;;;;4960297;28;20233;-69
2023/03/06 00:23:11;;;;;;;0.93;0.85;;;7.00;99.90;;;;;;4960241;28;20824;-68
2023/03/06 00:25:42;;;;;;;1.55;1.13;;;7.00;99.90;;;;;;4949891;28;20209;-68
2023/03/06 00:28:11;;;;;;;1.27;0.93;;;7.00;99.90;;;;;;4964120;28;20206;-69
2023/03/06 00:30:39;;;;;;;0.93;0.82;;;6.90;99.90;;;;;;4948089;28;20204;-68
2023/03/06 00:33:07;;;;;;;0.75;0.60;;;6.80;99.90;;;;;;4960352;28;20223;-69
2023/03/06 00:35:34;;;;;;;0.90;0.90;;;6.90;99.90;;;;;;4962888;28;20285;-69
2023/03/06 00:38:04;;;;;;;1.17;0.60;;;6.90;99.90;;;;;;4963722;28;20210;-69
2023/03/06 00:40:31;;;;;;;1.60;0.82;;;6.90;99.90;;;;;;4968078;28;20317;-68
2023/03/06 00:42:59;;;;;;;1.10;0.90;;;6.90;99.90;;;;;;4960208;28;20227;-69
2023/03/06 00:45:27;;;;;;;1.08;0.90;;;6.90;99.90;;;;;;4961826;28;20213;-68
2023/03/06 00:47:55;;;;;;;1.00;0.80;;;6.90;99.90;;;;;;4957957;28;20221;-67
2023/03/06 00:50:23;;;;;;;0.90;0.70;;;6.80;99.90;;;;;;4961354;28;20211;-68
2023/03/06 00:52:51;;;;;;;4.20;1.55;;;6.70;99.90;;;;;;4963965;28;20323;-69
2023/03/06 00:55:20;;;;;;;0.70;0.60;;;6.70;99.90;;;;;;4966023;28;20220;-69
2023/03/06 00:57:48;;;;;;;0.90;0.73;;;6.70;99.90;;;;;;4963915;28;20283;-69
2023/03/06 01:00:16;;;;;;;0.90;0.80;;;6.70;99.90;;;;;;4963337;28;20286;-68
2023/03/06 01:02:44;;;;;;;1.30;1.20;;;6.70;99.90;;;;;;4963906;28;20801;-69
2023/03/06 01:05:13;;;;;;;1.23;0.85;;;6.70;99.90;;;;;;4958500;28;20345;-69
2023/03/06 01:11:42;;;;;;;1.05;0.95;;;6.50;99.90;;;;;;4953579;28;20222;-69
2023/03/06 01:14:10;;;;;;;1.65;1.15;;;6.50;99.90;;;;;;4963364;28;20246;-68
2023/03/06 01:16:38;;;;;;;1.08;0.77;;;6.50;99.90;;;;;;4964594;28;20216;-69
2023/03/06 01:19:06;;;;;;;0.77;0.75;;;6.30;99.90;;;;;;4963532;28;20204;-69
2023/03/06 01:21:34;;;;;;;1.20;1.10;;;6.40;99.90;;;;;;4962852;28;20225;-68
2023/03/06 01:24:02;;;;;;;0.88;0.60;;;6.40;99.90;;;;;;4963232;28;20269;-68
2023/03/06 01:26:30;;;;;;;0.90;0.70;;;6.50;99.90;;;;;;4964125;28;20239;-69
2023/03/06 01:28:59;;;;;;;1.30;0.85;;;6.50;99.90;;;;;;4960829;28;20344;-69
2023/03/06 01:31:27;;;;;;;1.08;0.95;;;6.60;99.90;;;;;;4956399;28;20695;-68
2023/03/06 01:33:55;;;;;;;0.70;0.70;;;6.60;99.90;;;;;;4960506;28;20257;-68
2023/03/06 01:36:23;;;;;;;1.08;0.90;;;6.70;99.90;;;;;;4955479;28;20214;-68
2023/03/06 01:38:51;;;;;;;0.85;0.77;;;6.70;99.90;;;;;;4960543;28;20748;-69
2023/03/06 01:41:20;;;;;;;0.70;0.52;;;6.60;99.90;;;;;;4954694;28;20236;-69
2023/03/06 01:43:49;;;;;;;1.13;1.02;;;6.60;99.90;;;;;;4967733;28;20229;-69
2023/03/06 01:46:24;;;;;;;1.23;1.02;;;6.60;99.90;;;;;;4957134;28;20211;-69
2023/03/06 01:48:55;;;;;;;1.35;1.23;;;6.70;99.90;;;;;;4956427;28;20264;-69
2023/03/06 01:51:25;;;;;;;0.80;0.60;;;6.70;99.90;;;;;;4955996;28;20756;-69
2023/03/06 01:53:54;;;;;;;0.70;0.60;;;6.60;99.90;;;;;;4959627;28;20455;-69
2023/03/06 01:56:24;;;;;;;1.20;0.90;;;6.60;99.90;;;;;;4956157;28;20297;-68
2023/03/06 01:58:52;;;;;;;0.90;0.70;;;6.80;99.90;;;;;;4961072;28;20234;-69
2023/03/06 02:01:22;;;;;;;0.90;0.90;;;6.70;99.90;;;;;;4963270;28;20222;-68
2023/03/06 02:03:50;;;;;;;0.70;0.68;;;6.70;99.90;;;;;;4954541;28;20231;-68
2023/03/06 02:06:20;;;;;;;1.20;0.88;;;6.80;99.90;;;;;;4961332;28;20222;-66
2023/03/06 02:08:51;;;;;;;1.27;0.90;;;6.80;99.90;;;;;;4953581;28;20573;-68
2023/03/06 02:11:21;;;;;;;1.00;0.88;;;6.90;99.90;;;;;;4952369;28;20227;-68
2023/03/06 02:13:51;;;;;;;0.70;0.60;;;6.90;99.90;;;;;;4959129;28;20726;-69
2023/03/06 02:16:24;;;;;;;0.95;0.80;;;7.00;99.90;;;;;;4959023;28;20701;-67
2023/03/06 02:18:53;;;;;;;1.42;0.90;;;7.00;99.90;;;;;;4951957;28;20245;-70
2023/03/06 02:21:26;;;;;;;0.90;0.65;;;7.00;99.90;;;;;;4961368;28;20233;-70
2023/03/06 02:24:10;;;;;;;0.70;0.70;;;7.10;99.90;;;;;;4946667;28;20247;-69
2023/03/06 02:26:42;;;;;;;1.13;0.85;;;7.00;99.90;;;;;;4959340;28;20668;-70
2023/03/06 02:29:10;;;;;;;2.15;1.02;;;7.00;99.90;;;;;;4959638;28;20293;-69
2023/03/06 02:31:38;;;;;;;1.27;0.88;;;7.00;99.90;;;;;;4952806;28;20338;-69
2023/03/06 02:34:28;;;;;;;1.02;0.93;;;7.00;99.90;;;;;;4954262;28;20314;-69
2023/03/06 02:37:00;;;;;;;1.10;1.00;;;7.00;99.90;;;;;;4954839;28;20301;-69
2023/03/06 02:39:31;;;;;;;1.08;0.80;;;6.80;99.90;;;;;;4959351;28;20294;-69
2023/03/06 02:42:00;;;;;;;0.82;0.70;;;6.80;99.90;;;;;;4952010;28;20588;-68
2023/03/06 02:44:30;;;;;;;1.60;0.95;;;6.80;99.90;;;;;;4960995;28;20299;-69
2023/03/06 02:46:57;;;;;;;0.90;0.70;;;6.80;99.90;;;;;;4961522;28;20211;-68
2023/03/06 02:49:25;;;;;;;1.75;1.42;;;6.70;99.90;;;;;;4953888;28;20219;-68
2023/03/06 02:51:53;;;;;;;1.17;0.93;;;6.60;99.90;;;;;;4952572;28;20649;-69
2023/03/06 02:54:21;;;;;;;1.10;0.80;;;6.60;99.90;;;;;;4967055;28;20211;-66
2023/03/06 02:56:49;;;;;;;1.30;1.20;;;6.50;99.90;;;;;;4952741;28;20206;-69
2023/03/06 02:59:18;;;;;;;1.25;1.15;;;6.50;99.90;;;;;;4961111;28;20631;-69
2023/03/06 03:01:46;;;;;;;2.03;1.05;;;6.50;99.90;;;;;;4950021;28;20577;-68
2023/03/06 03:04:14;;;;;;;1.50;1.10;;;6.60;99.90;;;;;;4954018;28;20749;-69
2023/03/06 03:06:42;;;;;;;1.83;1.40;;;6.40;99.90;;;;;;4960906;28;20209;-69
2023/03/06 03:09:10;;;;;;;1.77;1.08;;;6.40;99.90;;;;;;4954737;28;20278;-69
2023/03/06 03:11:39;;;;;;;1.55;1.40;;;6.30;99.90;;;;;;4950113;28;20222;-69
2023/03/06 03:14:07;;;;;;;0.90;0.70;;;6.40;99.90;;;;;;4951087;28;20313;-70
2023/03/06 03:16:36;;;;;;;1.60;1.10;;;6.40;99.90;;;;;;4948575;28;20216;-69
2023/03/06 03:19:06;;;;;;;2.72;1.42;;;6.30;99.90;;;;;;4952189;28;20213;-70
2023/03/06 03:21:33;;;;;;;1.27;1.17;;;6.30;99.90;;;;;;4948730;28;20642;-70
2023/03/06 03:24:02;;;;;;;1.77;0.93;;;6.10;99.90;;;;;;4946077;28;20242;-69
2023/03/06 03:26:30;;;;;;;1.08;0.73;;;6.10;99.90;;;;;;4959029;28;20338;-70
2023/03/06 03:28:58;;;;;;;1.13;0.80;;;6.10;99.90;;;;;;4957800;28;20329;-70
2023/03/06 03:31:26;;;;;;;1.25;1.00;;;6.10;99.90;;;;;;4955422;28;20214;-70
2023/03/06 03:33:55;;;;;;;1.45;1.35;;;6.10;99.90;;;;;;4949953;28;20747;-69
2023/03/06 03:36:23;;;;;;;1.67;1.50;;;5.90;99.90;;;;;;4950789;28;20287;-69
2023/03/06 03:38:51;;;;;;;1.60;1.30;;;6.00;99.90;;;;;;4951123;28;20730;-70
2023/03/06 03:41:19;;;;;;;1.98;1.33;;;6.00;99.90;;;;;;4949266;28;20291;-69
2023/03/06 03:43:47;;;;;;;1.05;0.95;;;6.10;99.90;;;;;;4950772;28;20227;-69
2023/03/06 03:46:14;;;;;;;3.15;2.30;;;6.00;99.90;;;;;;4957086;28;20241;-69
2023/03/06 03:48:42;;;;;;;1.65;1.55;;;5.90;99.90;;;;;;4952413;28;20269;-69
2023/03/06 03:51:15;;;;;;;2.03;1.33;;;5.80;99.90;;;;;;4951256;28;20292;-69
2023/03/06 03:53:44;;;;;;;2.47;1.73;;;5.70;99.90;;;;;;4961500;28;20803;-69
2023/03/06 03:56:12;;;;;;;2.13;1.95;;;5.80;99.90;;;;;;4952636;28;20751;-69
2023/03/06 03:58:40;;;;;;;2.10;1.63;;;5.80;99.90;;;;;;4960860;28;20214;-69
2023/03/06 04:01:08;;;;;;;2.40;1.60;;;6.00;99.90;;;;;;4954336;28;20217;-69
2023/03/06 04:03:35;;;;;;;3.08;1.55;;;6.10;99.90;;;;;;4953889;28;20316;-69
2023/03/06 04:06:03;;;;;;;1.70;1.40;;;6.10;99.90;;;;;;4961652;28;20747;-70
2023/03/06 04:08:34;;;;;;;1.58;1.10;;;6.20;99.90;;;;;;4955457;28;20626;-69
2023/03/06 04:11:03;;;;;;;1.10;1.00;;;6.20;99.90;;;;;;4955236;28;20581;-70
2023/03/06 04:13:31;;;;;;;1.52;1.42;;;6.20;99.90;;;;;;4963857;28;20229;-69
2023/03/06 04:15:59;;;;;;;1.67;1.48;;;6.10;99.90;;;;;;4957800;28;20241;-69
2023/03/06 04:18:27;;;;;;;2.33;2.13;;;6.10;99.90;;;;;;4952193;28;20214;-67
2023/03/06 04:20:55;;;;;;;1.80;1.15;;;6.10;99.90;;;;;;4956825;28;20289;-69
2023/03/06 04:23:24;;;;;;;2.55;1.60;;;6.10;99.90;;;;;;4956894;28;20241;-67
2023/03/06 04:25:53;;;;;;;1.20;1.10;;;6.10;99.90;;;;;;4948257;28;20214;-69
2023/03/06 04:28:21;;;;;;;1.92;1.45;;;6.00;99.90;;;;;;4960687;28;20201;-69
2023/03/06 04:30:49;;;;;;;1.42;1.33;;;6.10;99.90;;;;;;4959575;28;20554;-69
2023/03/06 04:33:17;;;;;;;1.67;1.20;;;6.20;99.90;;;;;;4964261;28;20312;-69
2023/03/06 04:35:45;;;;;;;2.05;1.85;;;6.10;99.90;;;;;;4956812;28;20584;-69
2023/03/06 04:38:13;;;;;;;1.60;1.38;;;6.10;99.90;;;;;;4956780;28;20652;-69
2023/03/06 04:40:41;;;;;;;2.55;1.45;;;6.00;99.90;;;;;;4954208;28;20573;-68
2023/03/06 04:43:14;;;;;;;2.30;1.25;;;6.10;99.90;;;;;;4961313;28;20230;-69
2023/03/06 04:45:42;;;;;;;1.40;1.10;;;6.20;99.90;;;;;;4955121;28;20213;-69
2023/03/06 04:48:12;;;;;;;1.67;1.38;;;6.30;99.90;;;;;;4957180;28;20210;-69
2023/03/06 04:50:40;;;;;;;1.40;1.30;;;6.10;99.90;;;;;;4953779;28;20705;-68
2023/03/06 04:53:09;;;;;;;1.38;1.10;;;6.10;99.90;;;;;;4953926;28;20225;-69
2023/03/06 04:55:37;;;;;;;1.35;1.17;;;6.10;99.90;;;;;;4956980;28;20214;-68
2023/03/06 04:58:05;;;;;;;1.20;0.90;;;6.10;99.90;;;;;;4958808;28;20253;-69
2023/03/06 05:00:34;;;;;;;1.80;1.45;;;6.00;99.90;;;;;;4963340;28;20220;-69
2023/03/06 05:03:03;;;;;;;1.55;1.23;;;6.10;99.90;;;;;;4956731;28;20233;-69
2023/03/06 05:05:30;;;;;;;1.30;1.20;;;6.20;99.90;;;;;;4954664;28;20748;-68
2023/03/06 05:07:58;;;;;;;2.20;1.50;;;6.20;99.90;;;;;;4953030;28;20246;-68
2023/03/06 05:10:26;;;;;;;2.13;1.48;;;6.30;99.90;;;;;;4954069;28;20216;-69
2023/03/06 05:12:54;;;;;;;1.50;1.40;;;6.30;99.90;;;;;;4951386;28;20233;-69
2023/03/06 05:15:22;;;;;;;2.58;1.58;;;6.40;99.90;;;;;;4954582;28;20286;-68
2023/03/06 05:17:51;;;;;;;1.75;1.00;;;6.40;99.90;;;;;;4964916;28;20293;-68
2023/03/06 05:20:19;;;;;;;2.72;1.67;;;6.40;99.90;;;;;;4962933;28;20214;-68
2023/03/06 05:22:47;;;;;;;1.63;0.90;;;6.40;99.90;;;;;;4963196;28;20764;-69
2023/03/06 05:25:15;;;;;;;1.20;1.10;;;6.20;99.90;;;;;;4956104;28;20242;-69
2023/03/06 05:27:43;;;;;;;1.65;1.30;;;6.30;99.90;;;;;;4956001;28;20301;-68
2023/03/06 05:30:14;;;;;;;0.95;0.70;;;6.40;99.90;;;;;;4956418;28;20217;-68
2023/03/06 05:32:44;;;;;;;1.90;1.38;;;6.30;99.90;;;;;;4952380;28;20235;-68
2023/03/06 05:35:19;;;;;;;1.30;1.10;;;6.30;99.90;;;;;;4952269;28;20207;-68
2023/03/06 05:37:47;;;;;;;1.70;1.00;;;6.30;99.90;;;;;;4954416;28;20653;-69
2023/03/06 05:40:16;;;;;;;1.92;1.65;;;6.20;99.90;;;;;;4950500;28;20297;-68
2023/03/06 05:42:44;;;;;;;1.35;1.20;;;6.20;99.90;;;;;;4955544;28;20777;-68
2023/03/06 05:45:12;;;;;;;1.05;0.90;;;6.20;99.90;;;;;;4952645;28;20226;-67
2023/03/06 05:47:40;;;;;;;1.30;1.00;;;6.40;99.90;;;;;;4953822;28;20662;-71
2023/03/06 05:50:09;;;;;;;1.75;1.63;;;6.20;99.90;;;;;;4961610;28;20290;-70
2023/03/06 05:52:39;;;;;;;0.95;0.95;;;6.30;99.90;;;;;;4952134;28;20257;-65
2023/03/06 05:55:10;;;;;;;1.08;0.85;;;6.40;99.90;;;;;;4955160;28;20289;-68
2023/03/06 05:57:38;;;;;;;2.47;1.88;;;6.30;99.90;;;;;;4951939;28;20628;-68
2023/03/06 06:00:08;;;;;;;1.30;1.08;;;6.10;99.90;;;;;;4952275;28;20210;-68
2023/03/06 06:02:36;;;;;;;1.95;1.35;;;5.90;99.90;;;;;;4962924;28;20279;-68
2023/03/06 06:05:05;;;;;;;1.75;1.52;;;5.70;99.90;;;;;;4961502;28;20222;-67
2023/03/06 06:07:32;;;;;;;2.30;1.50;;;5.50;99.90;;;;;;4951068;28;20209;-66
2023/03/06 06:10:02;;;;;;;2.65;2.05;;;5.30;99.90;;;;;;4950761;28;20213;-68
2023/03/06 06:12:31;;;;;;;1.75;1.25;;;5.10;99.90;;;;;;4949484;28;20226;-67
2023/03/06 06:14:59;;;;;;;1.55;1.27;;;5.00;99.90;;;;;;4949483;28;20218;-68
2023/03/06 06:17:26;;;;;;;1.85;1.00;;;5.00;99.90;;;;;;4948259;28;20213;-68
2023/03/06 06:19:54;;;;;;;2.17;1.90;;;4.90;99.90;;;;;;4951144;28;20213;-68
2023/03/06 06:22:23;;;;;;;2.00;1.30;;;4.90;99.90;;;;;;4953460;28;20274;-68
2023/03/06 06:24:50;;;;;;;1.92;1.58;;;4.80;99.90;;;;;;4948730;28;20240;-68
2023/03/06 06:27:20;;;;;;;2.17;1.55;;;4.60;99.90;;;;;;4954340;28;20215;-68
2023/03/06 06:29:51;;;;;;;1.10;1.00;;;4.70;99.90;;;;;;4950696;28;20293;-68
2023/03/06 06:32:19;;;;;;;2.78;1.80;;;4.60;99.90;;;;;;4949808;28;21221;-69
2023/03/06 06:34:46;;;;;;;1.65;1.30;;;4.60;99.90;;;;;;4948122;28;20214;-68
2023/03/06 06:37:14;;;;;;;2.15;1.35;;;4.70;99.90;;;;;;4957982;28;20243;-68
2023/03/06 06:39:42;;;;;;;1.77;1.30;;;4.60;99.90;;;;;;4955853;28;20229;-69
2023/03/06 06:42:10;;;;;;;2.28;1.33;;;4.60;99.90;;;;;;4949736;28;20221;-68
2023/03/06 06:44:59;;;;;;;2.00;1.45;;;4.60;99.90;;;;;;4950613;28;20213;-69
2023/03/06 06:47:27;;;;;;;2.55;2.20;;;4.60;99.90;;;;;;4950172;28;20285;-67
2023/03/06 06:49:56;;;;;;;1.35;1.10;;;4.60;99.90;;;;;;4950631;28;20245;-71
2023/03/06 06:52:25;;;;;;;2.05;0.90;;;4.60;99.90;;;;;;4955130;28;20230;-74
2023/03/06 06:54:53;;;;;;;1.05;0.73;;;6.60;99.90;;;;;;4948684;28;20206;-72
2023/03/06 06:57:21;;;;;;;1.20;1.10;;;9.80;99.90;;;;;;4959366;28;20212;-69
2023/03/06 06:59:49;;;;;;;1.70;1.30;;;11.00;99.90;;;;;;4952951;28;20210;-68
2023/03/06 07:02:22;;;;;;;3.05;1.40;;;10.40;99.90;;;;;;4955242;28;20254;-70
2023/03/06 07:04:50;;;;;;;1.35;1.25;;;9.70;99.90;;;;;;4955958;28;20223;-69
2023/03/06 07:07:31;;;;;;;0.82;0.82;;;9.00;99.90;;;;;;4968264;28;20679;-69
2023/03/06 07:09:59;;;;;;;1.10;0.80;;;8.20;99.90;;;;;;4957521;28;20294;-70
2023/03/06 07:12:27;;;;;;;1.30;1.20;;;7.70;99.90;;;;;;4953229;28;20261;-70
2023/03/06 07:14:55;;;;;;;2.13;1.25;;;7.30;99.90;;;;;;4964060;28;20253;-70
2023/03/06 07:17:24;;;;;;;1.80;1.40;;;7.00;99.90;;;;;;4963315;28;20670;-70
2023/03/06 07:19:52;;;;;;;2.13;1.67;;;6.70;99.90;;;;;;4952348;28;20218;-69
2023/03/06 07:22:20;;;;;;;1.20;1.10;;;6.50;99.90;;;;;;4961270;28;20328;-69
2023/03/06 07:24:49;;;;;;;1.50;1.35;;;6.30;99.90;;;;;;4961586;28;20240;-69
2023/03/06 07:27:17;;;;;;;2.20;1.00;;;6.10;99.90;;;;;;4966940;28;20583;-69
2023/03/06 07:29:44;;;;;;;1.42;1.10;;;5.90;99.90;;;;;;4961977;28;20233;-69
2023/03/06 07:32:12;;;;;;;1.50;1.38;;;5.80;99.90;;;;;;4964274;28;20229;-69
2023/03/06 07:34:43;;;;;;;1.58;1.40;;;5.70;99.90;;;;;;4963705;28;20665;-69
2023/03/06 07:37:11;;;;;;;3.03;1.73;;;5.70;99.90;;;;;;4961220;28;20207;-69
2023/03/06 07:39:39;;;;;;;1.75;1.60;;;5.60;99.90;;;;;;4956812;28;20269;-70
2023/03/06 07:42:07;;;;;;;2.67;1.83;;;5.40;99.90;;;;;;4960802;28;20230;-70
2023/03/06 07:44:36;;;;;;;3.08;2.30;;;5.30;99.90;;;;;;4960905;28;20256;-69
2023/03/06 07:47:04;;;;;;;1.60;1.48;;;5.20;99.90;;;;;;4960881;28;20302;-69
2023/03/06 07:49:35;;;;;;;3.25;2.10;;;5.20;99.90;;;;;;4960771;28;20301;-69
2023/03/06 07:52:04;;;;;;;3.33;2.13;;;5.10;99.90;;;;;;4960815;28;20568;-69
2023/03/06 07:54:34;;;;;;;3.75;2.08;;;5.00;99.90;;;;;;4960819;28;20248;-69
2023/03/06 07:57:01;;;;;;;1.95;1.60;;;4.90;99.90;;;;;;4963882;28;20285;-69
2023/03/06 07:59:29;;;;;;;3.10;1.60;;;4.90;99.90;;;;;;4963875;28;20290;-69
2023/03/06 08:01:58;;;;;;;2.78;2.47;;;4.80;99.90;;;;;;4961169;28;20242;-69
2023/03/06 08:04:25;;;;;;;2.40;1.70;;;5.00;99.90;;;;;;4960374;28;20207;-71
2023/03/06 08:06:58;;;;;;;2.40;2.13;;;5.10;99.90;;;;;;4963078;28;20228;-70
2023/03/06 08:09:27;;;;;;;2.10;1.45;;;5.00;99.90;;;;;;4957252;28;20586;-70
2023/03/06 08:11:55;;;;;;;3.55;2.28;;;5.10;99.90;;;;;;4952112;28;20289;-70
2023/03/06 08:14:23;;;;;;;2.10;1.90;;;5.30;99.90;;;;;;4960664;28;20300;-69
2023/03/06 08:16:51;;;;;;;2.00;1.15;;;5.50;99.90;;;;;;4962132;28;20209;-69
2023/03/06 08:19:19;;;;;;;2.30;1.73;;;5.60;99.90;;;;;;4963881;28;20228;-69
2023/03/06 08:21:47;;;;;;;2.08;1.50;;;5.60;99.90;;;;;;4962570;28;20680;-70
2023/03/06 08:24:15;;;;;;;2.60;2.35;;;5.80;99.90;;;;;;4960134;28;20310;-70
2023/03/06 08:26:45;;;;;;;1.63;1.23;;;5.80;99.90;;;;;;4960749;28;20277;-70
2023/03/06 08:29:14;;;;;;;1.85;1.75;;;5.80;99.90;;;;;;4963869;28;20668;-69
2023/03/06 08:31:44;;;;;;;3.70;2.33;;;5.80;99.90;;;;;;4963103;28;20623;-69
2023/03/06 08:34:14;;;;;;;1.77;1.67;;;5.70;99.90;;;;;;4960297;28;20637;-70
2023/03/06 08:36:42;;;;;;;1.98;1.75;;;5.70;99.90;;;;;;4960597;28;20289;-70
2023/03/06 08:39:11;;;;;;;2.58;2.40;;;5.70;99.90;;;;;;4963643;28;20292;-70
2023/03/06 08:41:40;;;;;;;2.13;2.00;;;5.70;99.90;;;;;;4963674;28;20209;-69
2023/03/06 08:44:10;;;;;;;2.00;1.27;;;5.70;99.90;;;;;;4952926;28;20248;-70
2023/03/06 08:46:38;;;;;;;2.17;1.98;;;5.70;99.90;;;;;;4960296;28;20306;-70
2023/03/06 08:49:06;;;;;;;2.67;1.55;;;5.60;99.90;;;;;;4960538;28;20796;-69
2023/03/06 08:51:34;;;;;;;3.03;2.40;;;5.70;99.90;;;;;;4960137;28;20209;-69
2023/03/06 08:54:02;;;;;;;2.35;2.15;;;5.60;99.90;;;;;;4962653;28;20272;-68
2023/03/06 08:56:32;;;;;;;1.80;1.65;;;5.70;99.90;;;;;;4963872;28;20241;-69
2023/03/06 08:59:02;;;;;;;1.80;1.45;;;5.70;99.90;;;;;;4961002;28;20202;-69
2023/03/06 09:01:35;;;;;;;2.92;2.40;;;5.80;99.90;;;;;;4960072;28;20692;-70
2023/03/06 09:04:05;;;;;;;3.88;2.03;;;5.80;99.90;;;;;;4962598;28;20227;-67
2023/03/06 09:06:36;;;;;;;2.50;2.30;;;5.80;99.90;;;;;;4963572;28;20304;-67
2023/03/06 09:09:04;;;;;;;3.05;2.15;;;5.70;99.90;;;;;;4955884;28;20239;-68
2023/03/06 09:11:32;;;;;;;2.25;2.05;;;5.80;99.90;;;;;;4951847;28;20239;-68
2023/03/06 09:14:00;;;;;;;2.38;2.17;;;5.80;99.90;;;;;;4959998;28;20635;-69
2023/03/06 09:16:28;;;;;;;1.98;1.77;;;5.80;99.90;;;;;;4963047;28;20210;-69
2023/03/06 09:18:57;;;;;;;1.90;1.80;;;5.70;99.90;;;;;;4965061;28;20220;-67
2023/03/06 09:21:27;;;;;;;2.20;2.00;;;5.60;99.90;;;;;;4966616;28;20209;-68
2023/03/06 09:23:55;;;;;;;2.25;2.08;;;5.60;99.90;;;;;;4965281;28;20252;-68
2023/03/06 09:26:23;;;;;;;2.08;1.88;;;5.60;99.90;;;;;;4963097;28;20714;-69
2023/03/06 09:29:06;;;;;;;2.75;1.70;;;5.60;99.90;;;;;;4966249;28;20238;-66
2023/03/06 09:31:34;;;;;;;3.28;1.65;;;5.70;99.90;;;;;;4966493;28;20621;-66
2023/03/06 09:34:03;;;;;;;2.00;1.85;;;5.70;99.90;;;;;;4963334;28;20321;-69
2023/03/06 09:36:31;;;;;;;2.35;2.03;;;5.80;99.90;;;;;;4963248;28;20294;-69
2023/03/06 09:39:16;;;;;;;4.18;2.63;;;5.80;99.90;;;;;;4951715;28;20212;-68
2023/03/06 09:41:46;;;;;;;2.08;1.42;;;5.70;99.90;;;;;;4953127;29;20589;-67
2023/03/06 09:44:17;;;;;;;1.80;1.70;;;5.80;99.90;;;;;;4959194;28;20197;-69
2023/03/06 09:46:59;;;;;;;1.67;1.55;;;5.80;99.90;;;;;;4965802;28;20285;-66
2023/03/06 09:49:42;;;;;;;2.63;1.63;;;5.80;99.90;;;;;;4955131;28;20231;-68
2023/03/06 09:52:23;;;;;;;1.67;1.48;;;5.70;99.90;;;;;;4946877;28;20321;-68
2023/03/06 09:54:54;;;;;;;1.88;1.50;;;5.50;99.90;;;;;;4955376;28;20220;-68
2023/03/06 09:57:25;;;;;;;2.67;2.17;;;5.50;99.90;;;;;;4961167;28;20644;-70
2023/03/06 09:59:55;;;;;;;3.42;2.00;;;5.50;99.90;;;;;;4954192;28;20301;-68
2023/03/06 10:02:33;;;;;;;2.35;1.75;;;5.50;99.90;;;;;;4953981;28;20317;-68
2023/03/06 10:05:05;;;;;;;2.58;2.00;;;5.70;99.90;;;;;;4954243;28;20214;-69
2023/03/06 10:07:43;;;;;;;2.38;2.05;;;5.70;99.90;;;;;;4954762;28;20316;-69
2023/03/06 10:10:18;;;;;;;1.63;1.50;;;5.70;99.90;;;;;;4946572;29;20214;-68
2023/03/06 10:12:53;;;;;;;2.00;1.25;;;5.70;99.90;;;;;;4962095;28;20733;-67
2023/03/06 10:15:25;;;;;;;5.20;2.20;;;5.70;99.90;;;;;;4962253;28;20292;-70
2023/03/06 10:17:53;;;;;;;2.65;2.30;;;5.70;99.90;;;;;;4963533;28;20221;-69
2023/03/06 10:20:25;;;;;;;3.97;2.42;;;5.70;99.90;;;;;;4965730;28;20221;-69
2023/03/06 10:23:08;;;;;;;1.83;1.35;;;5.60;99.90;;;;;;4963672;28;20273;-69
2023/03/06 10:25:43;;;;;;;2.88;1.15;;;5.70;99.90;;;;;;4961915;28;20217;-69
2023/03/06 10:28:16;;;;;;;1.60;1.50;;;5.80;99.90;;;;;;4965586;28;20244;-69
2023/03/06 10:30:52;;;;;;;2.72;2.20;;;5.90;99.90;;;;;;4965384;28;20253;-70
2023/03/06 10:33:28;;;;;;;1.33;1.23;;;6.00;99.90;;;;;;4955288;28;20305;-67
2023/03/06 10:35:58;;;;;;;3.75;1.85;;;6.20;99.90;;;;;;4963272;28;20205;-69
2023/03/06 10:38:27;;;;;;;1.65;1.35;;;6.40;99.90;;;;;;4965369;28;20252;-69
2023/03/06 10:41:07;;;;;;;1.55;1.23;;;6.50;99.90;;;;;;4963671;28;20289;-69
2023/03/06 10:43:37;;;;;;;3.45;2.53;;;6.70;99.90;;;;;;4954206;28;20719;-69
2023/03/06 10:46:05;;;;;;;1.60;1.25;;;6.80;99.90;;;;;;4964125;28;20586;-69
2023/03/06 10:48:35;;;;;;;1.70;1.60;;;6.80;99.90;;;;;;4965252;28;20205;-69
2023/03/06 10:51:17;;;;;;;2.20;1.80;;;6.90;99.90;;;;;;4962917;28;20206;-69
2023/03/06 10:53:52;;;;;;;1.13;1.02;;;7.00;99.90;;;;;;4961856;28;20234;-69
2023/03/06 10:56:31;;;;;;;3.00;1.85;;;7.10;99.90;;;;;;4961847;28;20226;-68
2023/03/06 10:59:11;;;;;;;2.85;2.00;;;7.40;99.90;;;;;;4963006;28;20306;-68
2023/03/06 11:01:39;;;;;;;1.83;1.60;;;7.80;99.90;;;;;;4964839;28;20644;-71
2023/03/06 11:04:23;;;;;;;8.35;2.40;;;8.10;99.90;;;;;;4962170;28;20230;-71
2023/03/06 11:07:07;;;;;;;2.00;1.38;;;8.20;99.90;;;;;;4961859;28;20226;-69
2023/03/06 11:09:36;;;;;;;1.20;1.10;;;8.30;99.90;;;;;;4964752;28;20285;-69
2023/03/06 11:12:21;;;;;;;2.67;1.83;;;8.50;99.90;;;;;;4951705;28;20674;-69
2023/03/06 11:15:17;;;;;;;2.90;2.15;;;8.60;99.90;;;;;;4961390;28;20251;-69
2023/03/06 11:17:57;;;;;;;1.33;0.93;;;9.10;99.90;;;;;;4961394;28;20225;-69
2023/03/06 11:20:28;;;;;;;1.27;1.05;;;9.70;99.90;;;;;;4961099;28;20697;-69
2023/03/06 11:23:18;;;;;;;1.00;0.85;;;10.50;99.90;;;;;;4953329;28;20239;-69
2023/03/06 11:25:50;;;;;;;0.70;0.60;;;10.90;99.90;;;;;;4961225;28;20245;-67
2023/03/06 11:28:23;;;;;;;1.67;1.45;;;11.00;99.90;;;;;;4961248;28;20708;-69
2023/03/06 11:30:54;;;;;;;1.13;0.95;;;10.80;99.90;;;;;;4960790;28;20215;-67
2023/03/06 11:33:28;;;;;;;1.45;1.05;;;10.60;99.90;;;;;;4964400;28;20245;-69
2023/03/06 11:36:00;;;;;;;0.98;0.73;;;10.20;99.90;;;;;;4963545;28;20293;-66
2023/03/06 11:38:38;;;;;;;0.73;0.73;;;9.90;99.90;;;;;;4960341;28;20706;-69
2023/03/06 11:41:13;;;;;;;0.80;0.80;;;9.60;99.90;;;;;;4966778;28;20292;-71
2023/03/06 11:43:52;;;;;;;1.65;1.55;;;9.50;99.90;;;;;;4959917;28;20226;-71
2023/03/06 11:46:26;;;;;;;1.77;1.15;;;9.50;99.90;;;;;;4954193;28;20290;-69
2023/03/06 11:49:00;;;;;;;2.65;1.60;;;9.50;99.90;;;;;;4961179;28;20215;-69
2023/03/06 11:51:32;;;;;;;1.13;0.80;;;9.50;99.90;;;;;;4963929;28;20642;-68
2023/03/06 11:54:02;;;;;;;2.05;1.90;;;9.40;99.90;;;;;;4962897;28;20636;-69
2023/03/06 11:56:36;;;;;;;1.15;1.05;;;9.10;99.90;;;;;;4960939;28;20286;-69
2023/03/06 11:59:35;;;;;;;1.88;1.27;;;9.10;99.90;;;;;;4962819;28;20294;-69
2023/03/06 12:02:12;;;;;;;1.70;1.20;;;8.90;99.90;;;;;;4962137;28;20214;-69
2023/03/06 12:04:52;;;;;;;1.60;1.30;;;8.70;99.90;;;;;;4960898;28;20195;-69
2023/03/06 12:07:25;;;;;;;0.70;0.70;;;8.50;99.90;;;;;;4953287;28;20242;-69
2023/03/06 12:10:10;;;;;;;1.48;1.13;;;8.30;99.90;;;;;;4960590;28;20572;-67
2023/03/06 12:13:04;;;;;;;1.75;1.00;;;8.30;99.90;;;;;;4952623;28;20236;-71
2023/03/06 12:15:48;;;;;;;1.85;1.27;;;8.20;99.90;;;;;;4954906;28;20294;-70
2023/03/06 12:18:31;;;;;;;1.38;1.23;;;8.00;99.90;;;;;;4963380;28;20207;-70
2023/03/06 12:21:06;;;;;;;2.20;1.90;;;7.80;99.90;;;;;;4962877;28;20216;-69
2023/03/06 12:23:52;;;;;;;1.10;1.00;;;7.60;99.90;;;;;;4960342;28;20244;-70
2023/03/06 12:26:39;;;;;;;1.83;1.40;;;7.60;99.90;;;;;;4961001;28;20234;-69
2023/03/06 12:29:22;;;;;;;1.90;1.30;;;7.30;99.90;;;;;;4962213;28;20207;-70
2023/03/06 12:31:59;;;;;;;1.95;1.40;;;7.20;99.90;;;;;;4963581;28;20221;-66
2023/03/06 12:34:42;;;;;;;1.20;1.10;;;7.10;99.90;;;;;;4953930;28;20207;-70
2023/03/06 12:37:20;;;;;;;1.52;1.42;;;7.00;99.90;;;;;;4962730;28;20216;-69
2023/03/06 12:40:10;;;;;;;1.48;1.17;;;7.10;99.90;;;;;;4964238;28;20206;-70
2023/03/06 12:43:05;;;;;;;1.35;0.98;;;7.10;99.90;;;;;;4947245;28;20233;-70
2023/03/06 12:45:35;;;;;;;1.63;1.25;;;7.00;99.90;;;;;;4954441;28;20207;-69
2023/03/06 12:48:10;;;;;;;1.70;1.60;;;7.20;99.90;;;;;;4961629;28;20591;-69
2023/03/06 12:50:43;;;;;;;2.35;1.42;;;7.20;99.90;;;;;;4965388;28;20308;-67
2023/03/06 12:53:18;;;;;;;2.30;1.60;;;7.20;99.90;;;;;;4964913;28;20330;-69
2023/03/06 12:55:48;;;;;;;1.75;1.00;;;7.30;99.90;;;;;;4963966;28;20764;-69
2023/03/06 12:58:36;;;;;;;2.75;1.77;;;8.10;99.90;;;;;;4967070;28;20198;-72
2023/03/06 13:01:07;;;;;;;1.65;1.17;;;8.70;99.90;;;;;;4965593;28;20300;-70
2023/03/06 13:03:47;;;;;;;1.10;1.00;;;9.30;99.90;;;;;;4963907;28;20227;-70
2023/03/06 13:06:40;;;;;;;1.58;1.20;;;10.20;99.90;;;;;;4966445;28;20305;-70
2023/03/06 13:09:26;;;;;;;1.73;0.93;;;10.80;99.90;;;;;;4964049;28;20251;-71
2023/03/06 13:12:16;;;;;;;1.83;1.73;;;10.90;99.90;;;;;;4955190;28;20239;-70
2023/03/06 13:15:00;;;;;;;1.13;1.00;;;10.60;99.90;;;;;;4964076;28;20294;-70
2023/03/06 13:17:38;;;;;;;2.65;1.60;;;10.10;99.90;;;;;;4963740;28;20258;-70
2023/03/06 13:20:35;;;;;;;1.05;0.88;;;9.50;99.90;;;;;;4964998;28;20202;-71
2023/03/06 13:23:40;;;;;;;1.20;1.10;;;8.80;99.90;;;;;;4965337;28;20250;-70